Time;durP1;ratioP1;P1;durP2;ratioP2;P2;SDS_P1;SDS_P2;PMS_P1;PMS_P2;Temp;Humidity;BMP_temperature;BMP_pressure;BME280_temperature;BME280_humidity;BME280_pressure;Samples;Min_cycle;Max_cycle;Signal;HPM_P1;HPM_P2
2022/05/20 00:00:43;;;;;;;;;;;18.00;99.90;;;;;;5030877;28;19916;-71
2022/05/20 00:03:09;;;;;;;;;;;17.90;99.90;;;;;;5032042;28;19913;-70
2022/05/20 00:05:35;;;;;;;;;;;18.00;99.90;;;;;;5035790;28;19909;-72
2022/05/20 00:08:00;;;;;;;;;;;18.00;99.90;;;;;;5032747;28;19932;-72
2022/05/20 00:10:28;;;;;;;;;;;18.00;99.90;;;;;;5032518;28;19909;-71
2022/05/20 00:12:54;;;;;;;;;;;18.10;99.90;;;;;;5031071;28;19913;-72
2022/05/20 00:15:20;;;;;;;;;;;18.10;99.90;;;;;;5032931;28;19920;-72
2022/05/20 00:17:46;;;;;;;;;;;18.30;99.90;;;;;;5032611;28;19909;-72
2022/05/20 00:20:13;;;;;;;;;;;18.40;99.90;;;;;;5032318;28;19910;-72
2022/05/20 00:22:38;;;;;;;;;;;18.40;99.90;;;;;;5030939;28;19917;-72
2022/05/20 00:27:49;;;;;;;;;;;18.60;99.90;;;;;;5032529;28;19920;-72
2022/05/20 00:30:14;;;;;;;;;;;18.50;99.90;;;;;;5032142;28;19909;-72
2022/05/20 00:32:40;;;;;;;;;;;18.50;99.90;;;;;;5030962;28;19913;-71
2022/05/20 00:35:06;;;;;;;;;;;18.40;99.90;;;;;;5032428;28;20008;-73
2022/05/20 00:37:32;;;;;;;;;;;18.30;99.90;;;;;;5015336;28;19918;-73
2022/05/20 00:39:57;;;;;;;;;;;18.40;99.90;;;;;;5012415;28;20471;-72
2022/05/20 00:42:22;;;;;;;;;;;18.30;99.90;;;;;;5011201;28;19910;-71
2022/05/20 00:44:48;;;;;;;;;;;18.20;99.90;;;;;;5012645;28;19929;-72
2022/05/20 00:47:14;;;;;;;;;;;18.20;99.90;;;;;;5013105;28;19978;-72
2022/05/20 00:49:41;;;;;;;;;;;18.10;99.90;;;;;;5011915;28;19949;-72
2022/05/20 00:52:10;;;;;;;;;;;18.10;99.90;;;;;;5012203;28;20004;-71
2022/05/20 00:54:38;;;;;;;;;;;18.10;99.90;;;;;;5014398;28;19909;-72
2022/05/20 00:57:06;;;;;;;;;;;18.00;99.90;;;;;;5017107;28;19913;-71
2022/05/20 00:59:33;;;;;;;;;;;18.00;99.90;;;;;;5015403;28;19913;-72
2022/05/20 01:02:02;;;;;;;;;;;18.00;99.90;;;;;;5016146;28;19910;-71
2022/05/20 01:04:28;;;;;;;;;;;18.10;99.90;;;;;;5016031;28;19916;-72
2022/05/20 01:06:54;;;;;;;;;;;18.10;99.90;;;;;;5016937;28;20363;-71
2022/05/20 01:09:19;;;;;;;;;;;18.00;99.90;;;;;;5015766;28;20414;-72
2022/05/20 01:11:44;;;;;;;;;;;18.00;99.90;;;;;;5015959;28;19917;-72
2022/05/20 01:14:11;;;;;;;;;;;17.90;99.90;;;;;;5015560;28;19909;-71
2022/05/20 01:16:36;;;;;;;;;;;17.90;99.90;;;;;;5014630;28;19910;-72
2022/05/20 01:19:03;;;;;;;;;;;17.70;99.90;;;;;;5015448;28;19914;-71
2022/05/20 01:21:28;;;;;;;;;;;17.70;99.90;;;;;;5015832;28;19933;-72
2022/05/20 01:24:00;;;;;;;;;;;17.70;99.90;;;;;;5015625;28;20371;-72
2022/05/20 01:26:26;;;;;;;;;;;17.70;99.90;;;;;;5015655;28;19983;-72
2022/05/20 01:28:51;;;;;;;;;;;17.70;99.90;;;;;;5015469;28;19921;-72
2022/05/20 01:31:17;;;;;;;;;;;17.70;99.90;;;;;;5015284;28;19940;-72
2022/05/20 01:33:44;;;;;;;;;;;17.70;99.90;;;;;;5015537;28;19910;-72
2022/05/20 01:36:11;;;;;;;;;;;17.70;99.90;;;;;;5015648;28;19917;-72
2022/05/20 01:38:37;;;;;;;;;;;17.80;99.90;;;;;;5015065;28;19960;-72
2022/05/20 01:41:04;;;;;;;;;;;18.00;99.90;;;;;;5015068;28;19959;-72
2022/05/20 01:43:39;;;;;;;;;;;17.90;99.90;;;;;;5015512;28;19967;-72
2022/05/20 01:46:19;;;;;;;;;;;18.10;99.90;;;;;;5015358;28;19921;-71
2022/05/20 01:49:03;;;;;;;;;;;18.20;99.90;;;;;;5014986;28;19921;-72
2022/05/20 01:51:31;;;;;;;;;;;18.30;99.90;;;;;;5014988;28;20008;-73
2022/05/20 01:53:58;;;;;;;;;;;18.30;99.90;;;;;;5015287;28;19910;-72
2022/05/20 01:56:27;;;;;;;;;;;18.30;99.90;;;;;;5015165;28;19950;-72
2022/05/20 01:58:56;;;;;;;;;;;18.20;99.90;;;;;;5015102;28;19956;-71
2022/05/20 02:01:42;;;;;;;;;;;18.00;99.90;;;;;;5014677;28;19913;-72
2022/05/20 02:04:12;;;;;;;;;;;18.10;99.90;;;;;;5014622;28;19956;-72
2022/05/20 02:06:41;;;;;;;;;;;18.00;99.90;;;;;;5013844;28;19920;-72
2022/05/20 02:09:19;;;;;;;;;;;17.90;99.90;;;;;;5014698;28;19916;-72
2022/05/20 02:11:46;;;;;;;;;;;18.00;99.90;;;;;;5014637;28;19913;-72
2022/05/20 02:14:38;;;;;;;;;;;17.90;99.90;;;;;;5014437;28;19910;-72
2022/05/20 02:17:07;;;;;;;;;;;17.90;99.90;;;;;;5013571;28;19909;-72
2022/05/20 02:19:36;;;;;;;;;;;18.00;99.90;;;;;;5014491;28;19914;-72
2022/05/20 02:22:03;;;;;;;;;;;18.20;99.90;;;;;;5014457;28;19920;-71
2022/05/20 02:24:30;;;;;;;;;;;18.30;99.90;;;;;;5014819;28;20283;-72
2022/05/20 02:26:58;;;;;;;;;;;18.20;99.90;;;;;;5014642;28;19957;-72
2022/05/20 02:29:27;;;;;;;;;;;18.10;99.90;;;;;;5014630;28;19913;-71
2022/05/20 02:31:55;;;;;;;;;;;18.10;99.90;;;;;;5014410;28;20396;-71
2022/05/20 02:34:21;;;;;;;;;;;18.10;99.90;;;;;;5014403;28;19921;-72
2022/05/20 02:36:46;;;;;;;;;;;18.10;99.90;;;;;;5014005;28;19914;-71
2022/05/20 02:39:15;;;;;;;;;;;18.00;99.90;;;;;;5014349;28;19917;-71
2022/05/20 02:41:47;;;;;;;;;;;17.90;99.90;;;;;;5014331;28;19952;-71
2022/05/20 02:44:12;;;;;;;;;;;17.80;99.90;;;;;;5014224;28;19964;-71
2022/05/20 02:46:39;;;;;;;;;;;17.90;99.90;;;;;;5013743;28;19925;-71
2022/05/20 02:49:04;;;;;;;;;;;17.90;99.90;;;;;;5014030;28;19979;-70
2022/05/20 02:51:30;;;;;;;;;;;17.70;99.90;;;;;;5013945;28;20433;-72
2022/05/20 02:53:55;;;;;;;;;;;17.70;99.90;;;;;;5014109;28;19910;-71
2022/05/20 02:56:20;;;;;;;;;;;17.60;99.90;;;;;;5014119;28;20366;-71
2022/05/20 03:04:15;;;;;;;;;;;17.90;99.90;;;;;;5014083;28;19916;-72
2022/05/20 03:06:42;;;;;;;;;;;17.90;99.90;;;;;;5013798;28;19913;-72
2022/05/20 03:09:08;;;;;;;;;;;18.00;99.90;;;;;;5014681;28;19917;-72
2022/05/20 03:11:34;;;;;;;;;;;18.00;99.90;;;;;;5013641;28;19916;-72
2022/05/20 03:14:04;;;;;;;;;;;18.10;99.90;;;;;;5013375;28;19913;-71
2022/05/20 03:16:30;;;;;;;;;;;18.10;99.90;;;;;;5013468;28;19913;-72
2022/05/20 03:18:55;;;;;;;;;;;18.10;99.90;;;;;;5013130;28;19913;-71
2022/05/20 03:21:21;;;;;;;;;;;18.00;99.90;;;;;;5013432;28;19909;-72
2022/05/20 03:23:46;;;;;;;;;;;18.00;99.90;;;;;;5013345;28;20349;-72
2022/05/20 03:26:12;;;;;;;;;;;17.90;99.90;;;;;;5013699;28;19914;-72
2022/05/20 03:28:37;;;;;;;;;;;17.70;99.90;;;;;;5013575;28;20000;-72
2022/05/20 03:31:05;;;;;;;;;;;17.50;99.90;;;;;;5014366;28;20016;-72
2022/05/20 03:33:30;;;;;;;;;;;17.40;99.90;;;;;;5012092;28;20418;-72
2022/05/20 03:35:56;;;;;;;;;;;17.30;99.90;;;;;;5013382;28;19948;-72
2022/05/20 03:38:21;;;;;;;;;;;17.30;99.90;;;;;;5013285;28;19971;-72
2022/05/20 03:40:46;;;;;;;;;;;17.30;99.90;;;;;;5013920;28;19960;-72
2022/05/20 03:43:12;;;;;;;;;;;17.30;99.90;;;;;;5012430;28;19909;-71
2022/05/20 03:45:40;;;;;;;;;;;17.30;99.90;;;;;;5013100;28;19985;-72
2022/05/20 03:48:05;;;;;;;;;;;17.30;99.90;;;;;;5013009;28;19952;-71
2022/05/20 03:50:31;;;;;;;;;;;17.40;99.90;;;;;;5013743;28;20429;-71
2022/05/20 03:52:56;;;;;;;;;;;17.40;99.90;;;;;;5013030;28;19955;-72
2022/05/20 03:55:23;;;;;;;;;;;17.30;99.90;;;;;;5013064;28;19916;-72
2022/05/20 03:57:50;;;;;;;;;;;17.30;99.90;;;;;;5013116;28;19979;-71
2022/05/20 04:00:16;;;;;;;;;;;17.20;99.90;;;;;;5012687;28;19973;-71
2022/05/20 04:02:41;;;;;;;;;;;17.30;99.90;;;;;;5012653;28;19945;-72
2022/05/20 04:05:07;;;;;;;;;;;17.30;99.90;;;;;;5012872;28;20397;-71
2022/05/20 04:07:33;;;;;;;;;;;17.30;99.90;;;;;;5012768;28;19927;-71
2022/05/20 04:09:58;;;;;;;;;;;17.40;99.90;;;;;;5012419;28;19994;-72
2022/05/20 04:12:24;;;;;;;;;;;17.60;99.90;;;;;;5012352;28;19910;-72
2022/05/20 04:14:50;;;;;;;;;;;17.70;99.90;;;;;;5012769;28;20390;-72
2022/05/20 04:17:16;;;;;;;;;;;17.80;99.90;;;;;;5015787;28;19971;-72
2022/05/20 04:19:41;;;;;;;;;;;18.00;99.90;;;;;;5024058;28;19948;-72
2022/05/20 04:22:08;;;;;;;;;;;18.10;99.90;;;;;;5026002;28;19920;-70
2022/05/20 04:24:33;;;;;;;;;;;18.20;99.90;;;;;;5012434;28;19933;-70
2022/05/20 04:26:59;;;;;;;;;;;18.20;99.90;;;;;;5012515;28;20464;-71
2022/05/20 04:29:24;;;;;;;;;;;18.20;99.90;;;;;;5011699;28;19913;-71
2022/05/20 04:31:50;;;;;;;;;;;18.10;99.90;;;;;;5012531;28;19916;-70
2022/05/20 04:34:17;;;;;;;;;;;18.00;99.90;;;;;;5012525;28;20289;-71
2022/05/20 04:36:43;;;;;;;;;;;17.90;99.90;;;;;;5012260;28;19914;-71
2022/05/20 04:39:08;;;;;;;;;;;17.90;99.90;;;;;;5011939;28;19960;-71
2022/05/20 04:49:29;;;;;;;;;;;17.90;99.90;;;;;;5091052;22;19924;-68
2022/05/20 04:51:55;;;;;;;;;;;17.80;99.90;;;;;;5072146;28;19919;-68
2022/05/20 04:57:06;;;;;;;;;;;17.70;99.90;;;;;;5072045;28;19958;-68
2022/05/20 04:59:38;;;;;;;;;;;17.80;99.90;;;;;;5053783;28;19985;-67
2022/05/20 05:02:05;;;;;;;;;;;17.90;99.90;;;;;;5058361;28;19913;-67
2022/05/20 05:04:30;;;;;;;;;;;18.00;99.90;;;;;;5046286;28;20428;-68
2022/05/20 05:06:56;;;;;;;;;;;18.20;99.90;;;;;;5056840;28;19916;-67
2022/05/20 05:09:21;;;;;;;;;;;18.30;99.90;;;;;;5069575;28;19962;-67
2022/05/20 05:11:47;;;;;;;;;;;18.40;99.90;;;;;;5069099;28;19909;-69
2022/05/20 05:14:14;;;;;;;;;;;18.50;99.90;;;;;;5067611;28;19943;-67
2022/05/20 05:16:40;;;;;;;;;;;18.60;99.90;;;;;;5067429;28;20502;-67
2022/05/20 05:19:06;;;;;;;;;;;18.70;99.90;;;;;;5055418;28;19924;-69
2022/05/20 05:21:41;;;;;;;;;;;18.80;99.90;;;;;;5049775;28;19912;-69
2022/05/20 05:24:07;;;;;;;;;;;18.80;99.90;;;;;;5050247;28;19963;-69
2022/05/20 05:26:34;;;;;;;;;;;18.90;99.90;;;;;;5047300;28;20082;-68
2022/05/20 05:29:01;;;;;;;;;;;19.00;99.90;;;;;;5048405;28;20134;-68
2022/05/20 05:31:26;;;;;;;;;;;19.20;99.90;;;;;;5046479;28;19916;-66
2022/05/20 05:33:52;;;;;;;;;;;19.20;99.90;;;;;;5047512;28;20376;-66
2022/05/20 05:36:18;;;;;;;;;;;19.30;99.90;;;;;;5047463;28;19913;-67
2022/05/20 05:38:44;;;;;;;;;;;19.40;99.90;;;;;;5051292;28;19952;-68
2022/05/20 05:41:10;;;;;;;;;;;19.50;99.90;;;;;;5070198;28;19916;-68
2022/05/20 05:43:36;;;;;;;;;;;19.60;99.90;;;;;;5071023;28;19920;-67
2022/05/20 05:46:02;;;;;;;;;;;19.70;99.90;;;;;;5055513;28;19920;-68
2022/05/20 05:48:27;;;;;;;;;;;19.80;99.90;;;;;;5079218;28;19952;-72
2022/05/20 05:50:55;;;;;;;;;;;19.80;99.90;;;;;;5064242;28;20347;-68
2022/05/20 05:53:22;;;;;;;;;;;19.80;99.90;;;;;;5088059;28;20031;-68
2022/05/20 05:55:48;;;;;;;;;;;19.90;99.90;;;;;;5079416;28;19916;-68
2022/05/20 05:58:14;;;;;;;;;;;19.80;99.90;;;;;;5075827;28;20495;-68
2022/05/20 06:00:40;;;;;;;;;;;19.80;99.90;;;;;;5059381;28;19917;-68
2022/05/20 06:03:06;;;;;;;;;;;19.70;99.90;;;;;;5078861;28;19912;-68
2022/05/20 06:05:32;;;;;;;;;;;19.80;99.90;;;;;;5090077;28;20036;-67
2022/05/20 06:07:59;;;;;;;;;;;19.80;99.90;;;;;;5070249;28;19920;-67
2022/05/20 06:10:25;;;;;;;;;;;19.80;99.90;;;;;;5063463;28;20003;-68
2022/05/20 06:12:50;;;;;;;;;;;19.60;99.90;;;;;;5072583;28;20019;-67
2022/05/20 06:15:17;;;;;;;;;;;19.50;99.90;;;;;;5082303;28;19923;-67
2022/05/20 06:17:43;;;;;;;;;;;19.50;99.90;;;;;;5094854;28;19956;-67
2022/05/20 06:20:09;;;;;;;;;;;19.50;99.90;;;;;;5094615;28;19958;-68
2022/05/20 06:22:35;;;;;;;;;;;19.50;99.90;;;;;;5062664;28;20003;-68
2022/05/20 06:25:00;;;;;;;;;;;19.60;99.90;;;;;;5054442;28;19962;-68
2022/05/20 06:27:26;;;;;;;;;;;19.70;99.90;;;;;;5054299;28;19913;-67
2022/05/20 06:29:51;;;;;;;;;;;19.80;99.90;;;;;;5054344;28;19915;-68
2022/05/20 06:32:17;;;;;;;;;;;19.70;99.90;;;;;;5055688;28;19913;-67
2022/05/20 06:40:13;;;;;;;;;;;19.70;99.90;;;;;;5074700;28;19916;-68
2022/05/20 06:42:40;;;;;;;;;;;19.90;99.90;;;;;;5073557;28;19916;-68
2022/05/20 06:45:06;;;;;;;;;;;19.90;99.90;;;;;;5074430;28;19953;-68
2022/05/20 06:47:31;;;;;;;;;;;20.10;99.90;;;;;;5072051;28;20011;-68
2022/05/20 06:49:56;;;;;;;;;;;20.20;99.90;;;;;;5073857;28;19913;-67
2022/05/20 06:52:22;;;;;;;;;;;20.30;99.90;;;;;;5073479;28;20329;-68
2022/05/20 06:54:47;;;;;;;;;;;20.40;99.90;;;;;;5073838;28;20277;-67
2022/05/20 06:57:17;;;;;;;;;;;20.60;99.90;;;;;;5072220;28;20006;-67
2022/05/20 06:59:42;;;;;;;;;;;20.60;99.90;;;;;;5073441;28;20320;-68
2022/05/20 07:02:08;;;;;;;;;;;20.70;99.90;;;;;;5074042;28;19909;-67
2022/05/20 07:04:33;;;;;;;;;;;20.70;99.90;;;;;;5073825;28;19966;-68
2022/05/20 07:06:59;;;;;;;;;;;20.80;99.90;;;;;;5087331;28;19959;-67
2022/05/20 07:09:25;;;;;;;;;;;20.80;99.90;;;;;;5057869;28;19913;-67
2022/05/20 07:11:50;;;;;;;;;;;20.80;99.90;;;;;;5053613;28;19931;-68
2022/05/20 07:14:16;;;;;;;;;;;20.80;99.90;;;;;;5053626;28;20151;-68
2022/05/20 07:16:41;;;;;;;;;;;20.90;99.90;;;;;;5053541;28;19948;-67
2022/05/20 07:19:07;;;;;;;;;;;21.00;99.90;;;;;;5054202;28;19993;-66
2022/05/20 07:21:32;;;;;;;;;;;21.10;99.90;;;;;;5053607;28;19909;-67
2022/05/20 07:23:58;;;;;;;;;;;21.10;99.90;;;;;;5053327;28;19909;-69
2022/05/20 07:26:23;;;;;;;;;;;21.20;99.90;;;;;;5053151;28;19913;-67
2022/05/20 07:28:49;;;;;;;;;;;21.30;99.90;;;;;;5054229;28;19913;-68
2022/05/20 07:31:15;;;;;;;;;;;21.30;99.90;;;;;;5052942;28;19916;-66
2022/05/20 07:33:41;;;;;;;;;;;21.20;99.90;;;;;;5053217;28;19909;-68
2022/05/20 07:36:07;;;;;;;;;;;21.40;99.90;;;;;;5053416;28;19913;-66
2022/05/20 07:38:32;;;;;;;;;;;21.60;99.90;;;;;;5054011;28;19934;-66
2022/05/20 07:41:00;;;;;;;;;;;21.60;99.90;;;;;;5052822;28;19909;-66
2022/05/20 07:43:26;;;;;;;;;;;21.70;99.90;;;;;;5052991;28;20000;-67
2022/05/20 07:45:51;;;;;;;;;;;21.60;99.90;;;;;;5052909;28;20326;-66
2022/05/20 07:48:18;;;;;;;;;;;21.50;99.90;;;;;;5052746;28;20019;-66
2022/05/20 07:50:46;;;;;;;;;;;21.50;99.90;;;;;;5053886;28;20307;-66
2022/05/20 07:53:21;;;;;;;;;;;21.70;99.90;;;;;;5052984;28;19909;-67
2022/05/20 07:55:58;;;;;;;;;;;22.00;99.90;;;;;;5052975;28;20447;-67
2022/05/20 07:58:26;;;;;;;;;;;22.00;99.90;;;;;;5052255;28;19909;-67
2022/05/20 08:00:52;;;;;;;;;;;22.10;99.90;;;;;;5053695;28;20293;-67
2022/05/20 08:04:52;;;;;;;;;;;22.20;99.90;;;;;;5051856;28;19909;-68
2022/05/20 08:06:03;;;;;;;;;;;22.30;99.90;;;;;;5064235;28;20310;-69
2022/05/20 08:08:29;;;;;;;;;;;22.40;99.90;;;;;;5092651;28;19915;-67
2022/05/20 08:10:54;;;;;;;;;;;22.50;99.90;;;;;;5077902;28;19912;-68
2022/05/20 08:13:21;;;;;;;;;;;22.50;99.90;;;;;;5052793;28;19962;-67
2022/05/20 08:15:47;;;;;;;;;;;22.60;99.90;;;;;;5051977;28;20015;-67
2022/05/20 08:18:13;;;;;;;;;;;22.60;99.90;;;;;;5052200;28;19960;-67
2022/05/20 08:20:38;;;;;;;;;;;22.70;99.90;;;;;;5051997;28;20031;-69
2022/05/20 08:23:04;;;;;;;;;;;22.90;99.90;;;;;;5053751;28;19909;-68
2022/05/20 08:25:29;;;;;;;;;;;23.10;99.90;;;;;;5052592;28;20289;-68
2022/05/20 08:27:55;;;;;;;;;;;23.30;99.90;;;;;;5052276;28;19912;-68
2022/05/20 08:30:22;;;;;;;;;;;23.50;99.90;;;;;;5052240;28;19909;-69
2022/05/20 08:32:47;;;;;;;;;;;23.60;99.90;;;;;;5053429;28;19913;-67
2022/05/20 08:35:13;;;;;;;;;;;23.80;99.90;;;;;;5052317;28;19928;-69
2022/05/20 08:37:42;;;;;;;;;;;24.00;99.90;;;;;;5069693;28;19956;-69
2022/05/20 08:40:09;;;;;;;;;;;24.00;99.90;;;;;;5072468;28;19909;-67
2022/05/20 08:42:35;;;;;;;;;;;24.20;99.90;;;;;;5071059;28;19952;-68
2022/05/20 08:45:01;;;;;;;;;;;24.20;99.90;;;;;;5072265;28;19915;-69
2022/05/20 08:47:31;;;;;;;;;;;24.30;99.90;;;;;;5070191;28;20017;-66
2022/05/20 08:49:59;;;;;;;;;;;24.50;99.90;;;;;;5072096;28;20395;-68
2022/05/20 08:52:25;;;;;;;;;;;24.70;99.90;;;;;;5072352;28;19909;-67
2022/05/20 08:54:50;;;;;;;;;;;24.90;99.90;;;;;;5072480;28;19908;-67
2022/05/20 08:57:23;;;;;;;;;;;25.20;99.90;;;;;;5070850;28;20296;-66
2022/05/20 08:59:49;;;;;;;;;;;25.30;99.90;;;;;;5070805;28;19908;-67
2022/05/20 09:02:15;;;;;;;;;;;25.30;99.90;;;;;;5072292;28;20004;-67
2022/05/20 09:04:40;;;;;;;;;;;25.10;99.90;;;;;;5072352;28;19962;-67
2022/05/20 09:07:11;;;;;;;;;;;25.00;99.90;;;;;;5085390;28;19916;-67
2022/05/20 09:09:45;;;;;;;;;;;25.00;99.90;;;;;;5052917;28;20604;-69
2022/05/20 09:12:22;;;;;;;;;;;25.00;99.90;;;;;;5052099;28;19909;-68
2022/05/20 09:17:40;;;;;;;;;;;25.00;99.90;;;;;;5056101;28;19915;-68
2022/05/20 09:20:07;;;;;;;;;;;25.10;99.90;;;;;;5056686;28;19913;-66
2022/05/20 09:22:32;;;;;;;;;;;25.10;99.90;;;;;;5056173;28;20378;-69
2022/05/20 09:24:58;;;;;;;;;;;25.10;99.90;;;;;;5056233;28;19954;-67
2022/05/20 09:27:28;;;;;;;;;;;25.20;99.90;;;;;;5056329;28;19912;-68
2022/05/20 09:30:05;;;;;;;;;;;25.20;99.90;;;;;;5057356;28;19920;-67
2022/05/20 09:32:34;;;;;;;;;;;25.30;99.90;;;;;;5056660;28;19909;-69
2022/05/20 09:35:18;;;;;;;;;;;25.50;99.90;;;;;;5055946;28;19916;-68
2022/05/20 09:37:48;;;;;;;;;;;25.60;99.90;;;;;;5056251;28;19909;-67
2022/05/20 09:40:22;;;;;;;;;;;25.70;99.90;;;;;;5057106;28;19920;-67
2022/05/20 09:42:58;;;;;;;;;;;25.80;99.90;;;;;;5060178;28;20317;-67
2022/05/20 09:45:24;;;;;;;;;;;25.80;99.90;;;;;;5060746;28;19909;-69
2022/05/20 09:47:52;;;;;;;;;;;25.80;99.90;;;;;;5061961;28;20298;-68
2022/05/20 09:50:24;;;;;;;;;;;25.80;99.90;;;;;;5062638;28;20288;-68
2022/05/20 09:53:00;;;;;;;;;;;25.60;99.90;;;;;;5056644;28;19969;-68
2022/05/20 09:55:29;;;;;;;;;;;25.60;99.90;;;;;;5056262;28;19916;-67
2022/05/20 09:57:56;;;;;;;;;;;25.70;99.90;;;;;;5061308;28;19920;-68
2022/05/20 10:00:26;;;;;;;;;;;25.70;99.90;;;;;;5063654;28;19916;-69
2022/05/20 10:03:10;;;;;;;;;;;25.70;99.90;;;;;;5064527;28;19995;-69
2022/05/20 10:05:45;;;;;;;;;;;25.80;99.90;;;;;;5067270;28;19916;-69
2022/05/20 10:08:10;;;;;;;;;;;25.70;99.90;;;;;;5104145;28;20010;-68
2022/05/20 10:10:45;;;;;;;;;;;25.70;99.90;;;;;;5097995;28;19947;-68
2022/05/20 10:13:23;;;;;;;;;;;25.90;99.90;;;;;;5061946;28;19909;-69
2022/05/20 10:15:50;;;;;;;;;;;26.00;99.90;;;;;;5055008;28;19913;-68
2022/05/20 10:18:19;;;;;;;;;;;26.20;99.90;;;;;;5053675;28;20139;-68
2022/05/20 10:21:12;;;;;;;;;;;26.10;99.90;;;;;;5054532;28;19944;-68
2022/05/20 10:23:42;;;;;;;;;;;26.20;99.90;;;;;;5055895;28;19915;-69
2022/05/20 10:26:14;;;;;;;;;;;26.10;99.90;;;;;;5054113;28;20055;-68
2022/05/20 10:34:24;;;;;;;;;;;26.10;99.90;;;;;;5055618;28;19915;-68
2022/05/20 10:36:58;;;;;;;;;;;26.10;99.90;;;;;;5064978;28;19958;-66
2022/05/20 10:39:39;;;;;;;;;;;26.20;99.90;;;;;;5073916;28;19961;-71
2022/05/20 10:42:11;;;;;;;;;;;26.20;99.90;;;;;;5074323;28;19959;-68
2022/05/20 10:50:42;;;;;;;;;;;26.00;99.90;;;;;;5073747;28;20057;-67
2022/05/20 10:53:22;;;;;;;;;;;25.70;99.90;;;;;;5073758;28;19908;-67
2022/05/20 10:55:51;;;;;;;;;;;25.80;99.90;;;;;;5074009;28;20289;-69
2022/05/20 10:58:37;;;;;;;;;;;25.80;99.90;;;;;;5071653;28;20400;-68
2022/05/20 11:01:09;;;;;;;;;;;25.90;99.90;;;;;;5052400;28;19962;-68
2022/05/20 11:03:34;;;;;;;;;;;26.00;99.90;;;;;;5073876;28;20003;-68
2022/05/20 11:06:00;;;;;;;;;;;26.10;99.90;;;;;;5078991;28;19947;-67
2022/05/20 11:08:34;;;;;;;;;;;26.20;99.90;;;;;;5074881;28;19916;-70
2022/05/20 11:11:02;;;;;;;;;;;26.30;99.90;;;;;;5053031;28;19962;-68
2022/05/20 11:13:31;;;;;;;;;;;26.40;99.90;;;;;;5053832;28;19962;-67
2022/05/20 11:16:15;;;;;;;;;;;26.50;99.90;;;;;;5053270;28;20312;-67
2022/05/20 11:18:52;;;;;;;;;;;26.60;99.90;;;;;;5054416;28;20408;-69
2022/05/20 11:21:27;;;;;;;;;;;26.60;99.90;;;;;;5053169;28;20007;-67
2022/05/20 11:23:53;;;;;;;;;;;26.60;99.90;;;;;;5053354;28;19999;-68
2022/05/20 11:26:37;;;;;;;;;;;26.60;99.90;;;;;;5053166;28;20027;-68
2022/05/20 11:29:09;;;;;;;;;;;26.70;99.90;;;;;;5054246;28;20445;-67
2022/05/20 11:31:41;;;;;;;;;;;26.90;99.90;;;;;;5053321;28;20279;-68
2022/05/20 11:34:12;;;;;;;;;;;26.90;99.90;;;;;;5053095;28;20408;-68
2022/05/20 11:36:40;;;;;;;;;;;26.80;99.90;;;;;;5053012;28;19909;-68
2022/05/20 11:39:05;;;;;;;;;;;26.70;99.90;;;;;;5052784;28;19916;-69
2022/05/20 11:41:40;;;;;;;;;;;26.50;99.90;;;;;;5054126;28;19913;-68
2022/05/20 11:44:12;;;;;;;;;;;26.20;99.90;;;;;;5062821;28;20528;-68
2022/05/20 11:46:56;;;;;;;;;;;26.20;99.90;;;;;;5072717;28;19913;-67
2022/05/20 11:49:31;;;;;;;;;;;26.20;99.90;;;;;;5065495;28;20355;-66
2022/05/20 11:52:15;;;;;;;;;;;26.30;99.90;;;;;;5056599;28;19923;-69
2022/05/20 11:54:43;;;;;;;;;;;26.30;99.90;;;;;;5053349;28;19909;-68
2022/05/20 11:57:11;;;;;;;;;;;26.20;99.90;;;;;;5051791;28;20297;-68
2022/05/20 11:59:41;;;;;;;;;;;26.30;99.90;;;;;;5048251;28;19916;-69
2022/05/20 12:02:07;;;;;;;;;;;26.40;99.90;;;;;;5055439;28;20304;-68
2022/05/20 12:04:33;;;;;;;;;;;26.40;99.90;;;;;;5047762;28;19913;-67
2022/05/20 12:07:01;;;;;;;;;;;26.40;99.90;;;;;;5077223;28;20304;-69
2022/05/20 12:09:28;;;;;;;;;;;26.30;99.90;;;;;;5088918;28;20597;-68
2022/05/20 12:12:06;;;;;;;;;;;26.30;99.90;;;;;;5077183;28;19917;-69
2022/05/20 12:14:51;;;;;;;;;;;26.20;99.90;;;;;;5048280;28;19956;-69
2022/05/20 12:17:28;;;;;;;;;;;26.10;99.90;;;;;;5048666;28;19917;-68
2022/05/20 12:25:41;;;;;;;;;;;26.30;99.90;;;;;;5078839;28;20323;-68
2022/05/20 12:28:08;;;;;;;;;;;26.40;99.90;;;;;;5082911;28;19925;-67
2022/05/20 12:30:44;;;;;;;;;;;26.50;99.90;;;;;;5084460;28;19912;-68
2022/05/20 12:33:23;;;;;;;;;;;26.60;99.90;;;;;;5054603;28;20003;-67
2022/05/20 12:36:07;;;;;;;;;;;26.50;99.90;;;;;;5076592;28;19924;-67
2022/05/20 12:38:33;;;;;;;;;;;26.40;99.90;;;;;;5085754;28;19931;-68
2022/05/20 12:40:59;;;;;;;;;;;26.30;99.90;;;;;;5071844;28;20351;-69
2022/05/20 12:43:42;;;;;;;;;;;26.20;99.90;;;;;;5081988;28;19913;-68
2022/05/20 12:46:09;;;;;;;;;;;26.00;99.90;;;;;;5077151;28;19958;-67
2022/05/20 12:48:34;;;;;;;;;;;25.90;99.90;;;;;;5079989;28;19920;-68
2022/05/20 12:51:05;;;;;;;;;;;25.90;99.90;;;;;;5070718;28;19912;-68
2022/05/20 12:53:31;;;;;;;;;;;25.80;99.90;;;;;;5080790;28;19912;-68
2022/05/20 12:55:57;;;;;;;;;;;25.80;99.90;;;;;;5079703;28;19912;-68
2022/05/20 12:58:24;;;;;;;;;;;25.60;99.90;;;;;;5074536;28;20034;-68
2022/05/20 13:00:50;;;;;;;;;;;25.50;99.90;;;;;;5083749;28;20469;-67
2022/05/20 13:03:22;;;;;;;;;;;25.40;99.90;;;;;;5072892;28;19939;-67
2022/05/20 13:05:49;;;;;;;;;;;25.30;99.90;;;;;;5081255;28;19912;-69
2022/05/20 13:08:17;;;;;;;;;;;25.30;99.90;;;;;;5073184;28;19975;-68
2022/05/20 13:10:42;;;;;;;;;;;25.20;99.90;;;;;;5080020;28;19977;-68
2022/05/20 13:13:09;;;;;;;;;;;25.10;99.90;;;;;;5083488;28;20378;-68
2022/05/20 13:15:39;;;;;;;;;;;24.90;99.90;;;;;;5075099;28;19923;-67
2022/05/20 13:18:08;;;;;;;;;;;24.90;99.90;;;;;;5074361;28;19912;-66
2022/05/20 13:20:35;;;;;;;;;;;24.70;99.90;;;;;;5053812;28;19920;-67
2022/05/20 13:23:02;;;;;;;;;;;24.60;99.90;;;;;;5083487;28;19923;-68
2022/05/20 13:25:27;;;;;;;;;;;24.50;99.90;;;;;;5074741;28;19912;-68
2022/05/20 13:27:53;;;;;;;;;;;24.40;99.90;;;;;;5077515;28;19959;-67
2022/05/20 13:30:21;;;;;;;;;;;24.20;99.90;;;;;;5067302;28;20415;-67
2022/05/20 13:32:46;;;;;;;;;;;24.00;99.90;;;;;;5084177;28;19970;-68
2022/05/20 13:35:11;;;;;;;;;;;23.70;99.90;;;;;;5073022;28;19951;-67
2022/05/20 13:37:44;;;;;;;;;;;23.50;99.90;;;;;;5079251;28;20285;-67
2022/05/20 13:40:13;;;;;;;;;;;23.30;99.90;;;;;;5063530;28;20304;-67
2022/05/20 13:42:39;;;;;;;;;;;22.80;99.90;;;;;;5067965;28;20484;-70
2022/05/20 13:45:07;;;;;;;;;;;22.50;99.90;;;;;;5063034;28;19912;-76
2022/05/20 13:50:18;;;;;;;;;;;20.60;99.90;;;;;;5072857;28;19927;-74
2022/05/20 13:52:44;;;;;;;;;;;19.20;99.90;;;;;;5080615;28;19912;-74
2022/05/20 18:40:49;;;;;;;;;;;17.60;99.90;;;;;;5052774;28;19936;-72
2022/05/20 18:43:15;;;;;;;;;;;17.50;99.90;;;;;;5047547;28;19916;-71
2022/05/20 18:45:41;;;;;;;;;;;17.50;99.90;;;;;;5046725;28;19913;-72
2022/05/20 18:48:07;;;;;;;;;;;17.40;99.90;;;;;;5057532;28;20321;-71
2022/05/20 18:50:32;;;;;;;;;;;17.30;99.90;;;;;;5059748;28;19912;-71
2022/05/20 18:52:57;;;;;;;;;;;17.40;99.90;;;;;;5046449;28;19932;-72
2022/05/20 18:55:24;;;;;;;;;;;17.50;99.90;;;;;;5049357;28;19909;-73
2022/05/20 18:57:50;;;;;;;;;;;17.50;99.90;;;;;;5053471;28;20349;-71
2022/05/20 19:00:18;;;;;;;;;;;17.50;99.90;;;;;;5057187;28;19917;-71
2022/05/20 19:02:43;;;;;;;;;;;17.20;99.90;;;;;;5047721;28;20000;-71
2022/05/20 19:05:09;;;;;;;;;;;17.20;99.90;;;;;;5059573;28;20011;-71
2022/05/20 19:07:34;;;;;;;;;;;16.90;99.90;;;;;;5053853;28;19913;-71
2022/05/20 19:10:00;;;;;;;;;;;16.70;99.90;;;;;;5054519;28;19912;-71
2022/05/20 19:12:25;;;;;;;;;;;16.40;99.90;;;;;;5055414;28;19913;-71
2022/05/20 19:14:50;;;;;;;;;;;16.30;99.90;;;;;;5057433;28;19923;-70
2022/05/20 19:17:16;;;;;;;;;;;16.50;99.90;;;;;;5048634;28;19917;-70
2022/05/20 19:19:42;;;;;;;;;;;16.70;99.90;;;;;;5054098;28;19916;-71
2022/05/20 19:22:08;;;;;;;;;;;16.70;99.90;;;;;;5055779;28;20016;-71
2022/05/20 19:24:35;;;;;;;;;;;16.60;99.90;;;;;;5047194;28;19920;-71
2022/05/20 19:27:01;;;;;;;;;;;16.50;99.90;;;;;;5060193;28;20289;-71
2022/05/20 19:29:26;;;;;;;;;;;16.60;99.90;;;;;;5050093;28;20078;-72
2022/05/20 19:31:52;;;;;;;;;;;16.80;99.90;;;;;;5052748;28;19913;-71
2022/05/20 19:34:18;;;;;;;;;;;16.50;99.90;;;;;;5055251;28;20335;-71
2022/05/20 19:36:43;;;;;;;;;;;16.70;99.90;;;;;;5055577;28;19927;-71
2022/05/20 19:39:09;;;;;;;;;;;16.80;99.90;;;;;;5071255;28;20015;-71
2022/05/20 19:41:35;;;;;;;;;;;16.80;99.90;;;;;;5075607;28;20019;-71
2022/05/20 19:44:01;;;;;;;;;;;16.80;99.90;;;;;;5074639;28;19919;-72
2022/05/20 19:46:27;;;;;;;;;;;16.40;99.90;;;;;;5067901;28;19916;-71
2022/05/20 19:48:53;;;;;;;;;;;16.30;99.90;;;;;;5069459;28;19958;-71
2022/05/20 19:51:18;;;;;;;;;;;16.30;99.90;;;;;;5055218;28;19912;-71
2022/05/20 19:53:44;;;;;;;;;;;16.30;99.90;;;;;;5065193;28;19948;-71